sensor_id;sensor_type;location;lat;lon;timestamp;P1;durP1;ratioP1;P2;durP2;ratioP2
80225;SDS011;69538;42.000;21.452;2023-06-01T00:01:07;17.08;;;8.02;;
80225;SDS011;69538;42.000;21.452;2023-06-01T00:03:37;18.88;;;8.35;;
80225;SDS011;69538;42.000;21.452;2023-06-01T00:06:05;12.43;;;8.00;;
80225;SDS011;69538;42.000;21.452;2023-06-01T00:08:31;17.70;;;8.35;;
80225;SDS011;69538;42.000;21.452;2023-06-01T00:10:57;14.30;;;8.15;;
80225;SDS011;69538;42.000;21.452;2023-06-01T00:13:24;18.30;;;8.43;;
80225;SDS011;69538;42.000;21.452;2023-06-01T00:15:50;14.70;;;7.70;;
80225;SDS011;69538;42.000;21.452;2023-06-01T00:18:16;15.82;;;7.45;;
80225;SDS011;69538;42.000;21.452;2023-06-01T00:20:43;15.57;;;8.45;;
80225;SDS011;69538;42.000;21.452;2023-06-01T00:23:09;14.20;;;6.95;;
80225;SDS011;69538;42.000;21.452;2023-06-01T00:25:36;13.95;;;7.55;;
80225;SDS011;69538;42.000;21.452;2023-06-01T00:28:02;13.85;;;7.07;;
80225;SDS011;69538;42.000;21.452;2023-06-01T00:30:28;17.77;;;7.55;;
80225;SDS011;69538;42.000;21.452;2023-06-01T00:32:55;18.67;;;8.18;;
80225;SDS011;69538;42.000;21.452;2023-06-01T00:35:21;15.05;;;7.32;;
80225;SDS011;69538;42.000;21.452;2023-06-01T00:37:47;12.10;;;7.45;;
80225;SDS011;69538;42.000;21.452;2023-06-01T00:40:13;13.45;;;7.10;;
80225;SDS011;69538;42.000;21.452;2023-06-01T00:42:39;14.57;;;6.75;;
80225;SDS011;69538;42.000;21.452;2023-06-01T00:45:05;15.50;;;6.97;;
80225;SDS011;69538;42.000;21.452;2023-06-01T00:47:33;18.42;;;6.75;;
80225;SDS011;69538;42.000;21.452;2023-06-01T00:50:02;17.77;;;6.35;;
80225;SDS011;69538;42.000;21.452;2023-06-01T00:52:28;13.40;;;7.03;;
80225;SDS011;69538;42.000;21.452;2023-06-01T00:54:56;12.80;;;7.13;;
80225;SDS011;69538;42.000;21.452;2023-06-01T00:57:22;18.33;;;6.95;;
80225;SDS011;69538;42.000;21.452;2023-06-01T00:59:51;10.55;;;6.30;;
80225;SDS011;69538;42.000;21.452;2023-06-01T01:02:18;11.93;;;5.97;;
80225;SDS011;69538;42.000;21.452;2023-06-01T01:04:46;12.70;;;5.60;;
80225;SDS011;69538;42.000;21.452;2023-06-01T01:07:35;11.85;;;5.90;;
80225;SDS011;69538;42.000;21.452;2023-06-01T01:10:16;13.52;;;5.15;;
80225;SDS011;69538;42.000;21.452;2023-06-01T01:12:47;11.80;;;5.10;;
80225;SDS011;69538;42.000;21.452;2023-06-01T01:15:26;15.55;;;5.80;;
80225;SDS011;69538;42.000;21.452;2023-06-01T01:18:04;11.90;;;6.63;;
80225;SDS011;69538;42.000;21.452;2023-06-01T01:20:36;10.30;;;5.95;;
80225;SDS011;69538;42.000;21.452;2023-06-01T01:23:20;12.70;;;5.75;;
80225;SDS011;69538;42.000;21.452;2023-06-01T01:28:32;15.15;;;6.28;;
80225;SDS011;69538;42.000;21.452;2023-06-01T01:30:59;11.60;;;7.18;;
80225;SDS011;69538;42.000;21.452;2023-06-01T01:33:26;11.90;;;6.43;;
80225;SDS011;69538;42.000;21.452;2023-06-01T01:35:52;12.52;;;5.28;;
80225;SDS011;69538;42.000;21.452;2023-06-01T01:38:19;16.20;;;6.03;;
80225;SDS011;69538;42.000;21.452;2023-06-01T01:40:45;11.55;;;6.40;;
80225;SDS011;69538;42.000;21.452;2023-06-01T01:43:12;12.32;;;5.40;;
80225;SDS011;69538;42.000;21.452;2023-06-01T01:45:38;11.07;;;5.90;;
80225;SDS011;69538;42.000;21.452;2023-06-01T01:50:32;13.43;;;6.00;;
80225;SDS011;69538;42.000;21.452;2023-06-01T01:53:01;11.57;;;5.55;;
80225;SDS011;69538;42.000;21.452;2023-06-01T01:55:28;14.20;;;5.90;;
80225;SDS011;69538;42.000;21.452;2023-06-01T01:57:55;14.40;;;5.63;;
80225;SDS011;69538;42.000;21.452;2023-06-01T02:00:22;15.32;;;5.60;;
80225;SDS011;69538;42.000;21.452;2023-06-01T02:02:49;11.13;;;5.78;;
80225;SDS011;69538;42.000;21.452;2023-06-01T02:05:15;15.82;;;6.05;;
80225;SDS011;69538;42.000;21.452;2023-06-01T02:07:41;17.58;;;5.80;;
80225;SDS011;69538;42.000;21.452;2023-06-01T02:10:07;14.02;;;6.28;;
80225;SDS011;69538;42.000;21.452;2023-06-01T02:12:34;12.82;;;5.93;;
80225;SDS011;69538;42.000;21.452;2023-06-01T02:15:00;13.85;;;6.10;;
80225;SDS011;69538;42.000;21.452;2023-06-01T02:17:26;12.90;;;6.68;;
80225;SDS011;69538;42.000;21.452;2023-06-01T02:19:52;10.77;;;5.85;;
80225;SDS011;69538;42.000;21.452;2023-06-01T02:22:18;11.85;;;5.85;;
80225;SDS011;69538;42.000;21.452;2023-06-01T02:24:45;16.85;;;6.25;;
80225;SDS011;69538;42.000;21.452;2023-06-01T02:27:12;12.70;;;6.07;;
80225;SDS011;69538;42.000;21.452;2023-06-01T02:29:38;11.95;;;6.38;;
80225;SDS011;69538;42.000;21.452;2023-06-01T02:32:04;12.85;;;6.75;;
80225;SDS011;69538;42.000;21.452;2023-06-01T02:34:30;13.70;;;6.03;;
80225;SDS011;69538;42.000;21.452;2023-06-01T02:36:57;11.68;;;6.03;;
80225;SDS011;69538;42.000;21.452;2023-06-01T02:39:23;12.38;;;5.28;;
80225;SDS011;69538;42.000;21.452;2023-06-01T02:41:49;12.15;;;6.53;;
80225;SDS011;69538;42.000;21.452;2023-06-01T02:44:16;14.48;;;6.05;;
80225;SDS011;69538;42.000;21.452;2023-06-01T02:46:42;10.73;;;5.53;;
80225;SDS011;69538;42.000;21.452;2023-06-01T02:49:08;13.95;;;6.65;;
80225;SDS011;69538;42.000;21.452;2023-06-01T02:51:35;11.15;;;5.45;;
80225;SDS011;69538;42.000;21.452;2023-06-01T02:54:01;15.55;;;5.15;;
80225;SDS011;69538;42.000;21.452;2023-06-01T02:56:27;16.38;;;6.25;;
80225;SDS011;69538;42.000;21.452;2023-06-01T02:58:53;8.88;;;5.15;;
80225;SDS011;69538;42.000;21.452;2023-06-01T03:01:20;10.63;;;5.13;;
80225;SDS011;69538;42.000;21.452;2023-06-01T03:03:46;18.65;;;5.80;;
80225;SDS011;69538;42.000;21.452;2023-06-01T03:06:13;13.82;;;6.07;;
80225;SDS011;69538;42.000;21.452;2023-06-01T03:08:42;13.73;;;5.90;;
80225;SDS011;69538;42.000;21.452;2023-06-01T03:11:09;12.00;;;6.40;;
80225;SDS011;69538;42.000;21.452;2023-06-01T03:13:35;12.70;;;6.20;;
80225;SDS011;69538;42.000;21.452;2023-06-01T03:16:01;14.70;;;5.50;;
80225;SDS011;69538;42.000;21.452;2023-06-01T03:18:27;10.55;;;5.13;;
80225;SDS011;69538;42.000;21.452;2023-06-01T03:20:53;16.25;;;6.13;;
80225;SDS011;69538;42.000;21.452;2023-06-01T03:23:19;12.35;;;6.20;;
80225;SDS011;69538;42.000;21.452;2023-06-01T03:25:46;13.48;;;6.05;;
80225;SDS011;69538;42.000;21.452;2023-06-01T03:28:12;12.32;;;5.93;;
80225;SDS011;69538;42.000;21.452;2023-06-01T03:30:38;13.43;;;6.07;;
80225;SDS011;69538;42.000;21.452;2023-06-01T03:33:04;13.07;;;6.22;;
80225;SDS011;69538;42.000;21.452;2023-06-01T03:35:31;11.13;;;5.88;;
80225;SDS011;69538;42.000;21.452;2023-06-01T03:37:57;12.60;;;6.13;;
80225;SDS011;69538;42.000;21.452;2023-06-01T03:40:23;12.57;;;5.55;;
80225;SDS011;69538;42.000;21.452;2023-06-01T03:42:49;10.70;;;5.75;;
80225;SDS011;69538;42.000;21.452;2023-06-01T03:45:15;12.65;;;5.25;;
80225;SDS011;69538;42.000;21.452;2023-06-01T03:47:42;13.90;;;5.88;;
80225;SDS011;69538;42.000;21.452;2023-06-01T03:50:08;12.00;;;6.65;;
80225;SDS011;69538;42.000;21.452;2023-06-01T03:52:35;17.70;;;5.38;;
80225;SDS011;69538;42.000;21.452;2023-06-01T03:55:02;10.50;;;5.25;;
80225;SDS011;69538;42.000;21.452;2023-06-01T03:57:38;13.00;;;5.15;;
80225;SDS011;69538;42.000;21.452;2023-06-01T04:00:04;9.82;;;4.82;;
80225;SDS011;69538;42.000;21.452;2023-06-01T04:02:46;10.50;;;5.50;;
80225;SDS011;69538;42.000;21.452;2023-06-01T04:05:17;12.23;;;4.65;;
80225;SDS011;69538;42.000;21.452;2023-06-01T04:07:50;12.05;;;6.25;;
80225;SDS011;69538;42.000;21.452;2023-06-01T04:10:17;12.60;;;6.20;;
80225;SDS011;69538;42.000;21.452;2023-06-01T04:12:44;11.23;;;4.72;;
80225;SDS011;69538;42.000;21.452;2023-06-01T04:15:11;9.73;;;5.13;;
80225;SDS011;69538;42.000;21.452;2023-06-01T04:17:37;11.15;;;4.93;;
80225;SDS011;69538;42.000;21.452;2023-06-01T04:20:04;17.35;;;5.38;;
80225;SDS011;69538;42.000;21.452;2023-06-01T04:22:34;10.80;;;4.95;;
80225;SDS011;69538;42.000;21.452;2023-06-01T04:25:01;15.15;;;5.10;;
80225;SDS011;69538;42.000;21.452;2023-06-01T04:27:27;10.18;;;5.45;;
80225;SDS011;69538;42.000;21.452;2023-06-01T04:29:53;12.88;;;5.68;;
80225;SDS011;69538;42.000;21.452;2023-06-01T04:32:19;13.82;;;5.82;;
80225;SDS011;69538;42.000;21.452;2023-06-01T04:34:48;14.05;;;6.07;;
80225;SDS011;69538;42.000;21.452;2023-06-01T04:37:16;16.85;;;6.78;;
80225;SDS011;69538;42.000;21.452;2023-06-01T04:39:46;12.95;;;6.38;;
80225;SDS011;69538;42.000;21.452;2023-06-01T04:42:17;13.30;;;6.35;;
80225;SDS011;69538;42.000;21.452;2023-06-01T04:44:44;14.23;;;6.55;;
80225;SDS011;69538;42.000;21.452;2023-06-01T04:47:15;23.20;;;7.28;;
80225;SDS011;69538;42.000;21.452;2023-06-01T04:49:46;19.00;;;9.13;;
80225;SDS011;69538;42.000;21.452;2023-06-01T04:52:12;26.65;;;10.48;;
80225;SDS011;69538;42.000;21.452;2023-06-01T04:54:39;24.85;;;10.90;;
80225;SDS011;69538;42.000;21.452;2023-06-01T04:57:06;23.38;;;11.63;;
80225;SDS011;69538;42.000;21.452;2023-06-01T04:59:32;21.42;;;10.23;;
80225;SDS011;69538;42.000;21.452;2023-06-01T05:01:59;27.02;;;11.75;;
80225;SDS011;69538;42.000;21.452;2023-06-01T05:04:25;28.13;;;11.52;;
80225;SDS011;69538;42.000;21.452;2023-06-01T05:06:52;23.92;;;10.85;;
80225;SDS011;69538;42.000;21.452;2023-06-01T05:09:18;25.83;;;11.02;;
80225;SDS011;69538;42.000;21.452;2023-06-01T05:11:44;25.77;;;11.15;;
80225;SDS011;69538;42.000;21.452;2023-06-01T05:14:10;24.15;;;11.95;;
80225;SDS011;69538;42.000;21.452;2023-06-01T05:16:36;24.80;;;11.13;;
80225;SDS011;69538;42.000;21.452;2023-06-01T05:19:02;22.85;;;12.15;;
80225;SDS011;69538;42.000;21.452;2023-06-01T05:21:28;24.58;;;11.15;;
80225;SDS011;69538;42.000;21.452;2023-06-01T05:23:56;24.83;;;11.82;;
80225;SDS011;69538;42.000;21.452;2023-06-01T05:26:23;39.83;;;14.90;;
80225;SDS011;69538;42.000;21.452;2023-06-01T05:28:50;25.08;;;13.27;;
80225;SDS011;69538;42.000;21.452;2023-06-01T05:31:16;12.93;;;7.90;;
80225;SDS011;69538;42.000;21.452;2023-06-01T05:33:42;15.00;;;7.70;;
80225;SDS011;69538;42.000;21.452;2023-06-01T05:36:08;12.98;;;7.43;;
80225;SDS011;69538;42.000;21.452;2023-06-01T05:38:35;13.75;;;7.22;;
80225;SDS011;69538;42.000;21.452;2023-06-01T05:41:02;11.52;;;6.20;;
80225;SDS011;69538;42.000;21.452;2023-06-01T05:43:28;12.90;;;6.65;;
80225;SDS011;69538;42.000;21.452;2023-06-01T05:45:54;21.60;;;8.13;;
80225;SDS011;69538;42.000;21.452;2023-06-01T05:48:20;18.10;;;7.05;;
80225;SDS011;69538;42.000;21.452;2023-06-01T05:50:46;13.85;;;5.70;;
80225;SDS011;69538;42.000;21.452;2023-06-01T05:53:13;15.43;;;8.13;;
80225;SDS011;69538;42.000;21.452;2023-06-01T05:55:39;14.57;;;9.15;;
80225;SDS011;69538;42.000;21.452;2023-06-01T05:58:05;16.27;;;7.03;;
80225;SDS011;69538;42.000;21.452;2023-06-01T06:00:32;13.20;;;6.15;;
80225;SDS011;69538;42.000;21.452;2023-06-01T06:03:00;17.70;;;7.80;;
80225;SDS011;69538;42.000;21.452;2023-06-01T06:05:26;20.15;;;9.05;;
80225;SDS011;69538;42.000;21.452;2023-06-01T06:07:53;20.23;;;9.45;;
80225;SDS011;69538;42.000;21.452;2023-06-01T06:10:19;15.93;;;8.52;;
80225;SDS011;69538;42.000;21.452;2023-06-01T06:12:45;17.85;;;9.00;;
80225;SDS011;69538;42.000;21.452;2023-06-01T06:15:12;19.98;;;9.93;;
80225;SDS011;69538;42.000;21.452;2023-06-01T06:17:38;15.55;;;9.23;;
80225;SDS011;69538;42.000;21.452;2023-06-01T06:20:05;24.08;;;10.10;;
80225;SDS011;69538;42.000;21.452;2023-06-01T06:22:35;18.73;;;8.70;;
80225;SDS011;69538;42.000;21.452;2023-06-01T06:25:01;20.40;;;8.75;;
80225;SDS011;69538;42.000;21.452;2023-06-01T06:27:27;17.13;;;7.55;;
80225;SDS011;69538;42.000;21.452;2023-06-01T06:29:54;20.15;;;8.93;;
80225;SDS011;69538;42.000;21.452;2023-06-01T06:32:20;27.88;;;11.02;;
80225;SDS011;69538;42.000;21.452;2023-06-01T06:34:47;13.75;;;6.38;;
80225;SDS011;69538;42.000;21.452;2023-06-01T06:37:16;13.15;;;6.00;;
80225;SDS011;69538;42.000;21.452;2023-06-01T06:39:43;16.30;;;7.63;;
80225;SDS011;69538;42.000;21.452;2023-06-01T06:42:09;29.05;;;16.08;;
80225;SDS011;69538;42.000;21.452;2023-06-01T06:44:36;17.55;;;8.77;;
80225;SDS011;69538;42.000;21.452;2023-06-01T06:47:02;22.20;;;13.13;;
80225;SDS011;69538;42.000;21.452;2023-06-01T06:49:28;22.30;;;9.75;;
80225;SDS011;69538;42.000;21.452;2023-06-01T06:51:54;13.98;;;6.35;;
80225;SDS011;69538;42.000;21.452;2023-06-01T06:54:21;12.52;;;6.95;;
80225;SDS011;69538;42.000;21.452;2023-06-01T06:56:47;12.13;;;5.82;;
80225;SDS011;69538;42.000;21.452;2023-06-01T06:59:13;15.77;;;6.90;;
80225;SDS011;69538;42.000;21.452;2023-06-01T07:01:40;11.07;;;5.40;;
80225;SDS011;69538;42.000;21.452;2023-06-01T07:04:06;12.98;;;8.60;;
80225;SDS011;69538;42.000;21.452;2023-06-01T07:06:32;22.60;;;12.85;;
80225;SDS011;69538;42.000;21.452;2023-06-01T07:08:59;10.85;;;6.40;;
80225;SDS011;69538;42.000;21.452;2023-06-01T07:11:25;11.63;;;5.07;;
80225;SDS011;69538;42.000;21.452;2023-06-01T07:13:54;8.75;;;4.10;;
80225;SDS011;69538;42.000;21.452;2023-06-01T07:16:23;11.07;;;6.75;;
80225;SDS011;69538;42.000;21.452;2023-06-01T07:18:49;16.30;;;9.07;;
80225;SDS011;69538;42.000;21.452;2023-06-01T07:21:17;15.05;;;8.38;;
80225;SDS011;69538;42.000;21.452;2023-06-01T07:23:44;11.05;;;4.35;;
80225;SDS011;69538;42.000;21.452;2023-06-01T07:26:10;9.02;;;4.55;;
80225;SDS011;69538;42.000;21.452;2023-06-01T07:28:36;10.48;;;5.68;;
80225;SDS011;69538;42.000;21.452;2023-06-01T07:31:03;12.25;;;4.88;;
80225;SDS011;69538;42.000;21.452;2023-06-01T07:33:29;11.68;;;5.05;;
80225;SDS011;69538;42.000;21.452;2023-06-01T07:35:55;10.20;;;4.80;;
80225;SDS011;69538;42.000;21.452;2023-06-01T07:38:23;13.80;;;4.38;;
80225;SDS011;69538;42.000;21.452;2023-06-01T07:40:50;13.38;;;4.60;;
80225;SDS011;69538;42.000;21.452;2023-06-01T07:43:16;20.38;;;9.35;;
80225;SDS011;69538;42.000;21.452;2023-06-01T07:45:42;7.05;;;3.58;;
80225;SDS011;69538;42.000;21.452;2023-06-01T07:48:08;10.07;;;4.63;;
80225;SDS011;69538;42.000;21.452;2023-06-01T07:50:35;12.20;;;4.80;;
80225;SDS011;69538;42.000;21.452;2023-06-01T07:53:02;9.88;;;4.43;;
80225;SDS011;69538;42.000;21.452;2023-06-01T07:55:29;7.50;;;3.63;;
80225;SDS011;69538;42.000;21.452;2023-06-01T07:57:55;8.57;;;4.68;;
80225;SDS011;69538;42.000;21.452;2023-06-01T08:00:21;8.45;;;3.63;;
80225;SDS011;69538;42.000;21.452;2023-06-01T08:02:47;9.90;;;5.10;;
80225;SDS011;69538;42.000;21.452;2023-06-01T08:05:13;10.27;;;5.45;;
80225;SDS011;69538;42.000;21.452;2023-06-01T08:07:42;9.85;;;4.18;;
80225;SDS011;69538;42.000;21.452;2023-06-01T08:10:10;10.02;;;3.80;;
80225;SDS011;69538;42.000;21.452;2023-06-01T08:12:36;6.47;;;4.03;;
80225;SDS011;69538;42.000;21.452;2023-06-01T08:15:03;11.07;;;4.03;;
80225;SDS011;69538;42.000;21.452;2023-06-01T08:17:29;13.30;;;3.90;;
80225;SDS011;69538;42.000;21.452;2023-06-01T08:19:56;8.98;;;3.90;;
80225;SDS011;69538;42.000;21.452;2023-06-01T08:22:22;9.77;;;4.43;;
80225;SDS011;69538;42.000;21.452;2023-06-01T08:24:49;8.07;;;3.78;;
80225;SDS011;69538;42.000;21.452;2023-06-01T08:29:44;9.00;;;4.10;;
80225;SDS011;69538;42.000;21.452;2023-06-01T08:32:14;11.63;;;4.45;;
80225;SDS011;69538;42.000;21.452;2023-06-01T08:34:42;7.85;;;4.03;;
80225;SDS011;69538;42.000;21.452;2023-06-01T08:37:08;11.35;;;3.95;;
80225;SDS011;69538;42.000;21.452;2023-06-01T08:39:34;8.77;;;4.43;;
80225;SDS011;69538;42.000;21.452;2023-06-01T08:42:09;10.05;;;4.85;;
80225;SDS011;69538;42.000;21.452;2023-06-01T08:44:39;8.52;;;4.60;;
80225;SDS011;69538;42.000;21.452;2023-06-01T08:47:06;11.50;;;4.65;;
80225;SDS011;69538;42.000;21.452;2023-06-01T08:49:33;9.23;;;4.53;;
80225;SDS011;69538;42.000;21.452;2023-06-01T08:52:06;8.65;;;4.35;;
80225;SDS011;69538;42.000;21.452;2023-06-01T08:54:32;8.43;;;4.22;;
80225;SDS011;69538;42.000;21.452;2023-06-01T08:56:59;10.27;;;4.57;;
80225;SDS011;69538;42.000;21.452;2023-06-01T08:59:34;12.90;;;4.55;;
80225;SDS011;69538;42.000;21.452;2023-06-01T09:02:02;8.43;;;3.78;;
80225;SDS011;69538;42.000;21.452;2023-06-01T09:04:31;7.38;;;3.92;;
80225;SDS011;69538;42.000;21.452;2023-06-01T09:07:16;10.15;;;4.70;;
80225;SDS011;69538;42.000;21.452;2023-06-01T09:09:43;11.98;;;4.53;;
80225;SDS011;69538;42.000;21.452;2023-06-01T09:12:29;10.48;;;4.63;;
80225;SDS011;69538;42.000;21.452;2023-06-01T09:17:45;11.52;;;4.75;;
80225;SDS011;69538;42.000;21.452;2023-06-01T09:20:27;8.88;;;4.20;;
80225;SDS011;69538;42.000;21.452;2023-06-01T09:22:56;11.68;;;4.82;;
80225;SDS011;69538;42.000;21.452;2023-06-01T09:25:24;7.32;;;3.80;;
80225;SDS011;69538;42.000;21.452;2023-06-01T09:27:52;11.02;;;4.72;;
80225;SDS011;69538;42.000;21.452;2023-06-01T09:30:19;10.00;;;5.25;;
80225;SDS011;69538;42.000;21.452;2023-06-01T09:32:46;12.35;;;5.20;;
80225;SDS011;69538;42.000;21.452;2023-06-01T09:35:40;10.63;;;4.57;;
80225;SDS011;69538;42.000;21.452;2023-06-01T09:38:08;8.27;;;3.42;;
80225;SDS011;69538;42.000;21.452;2023-06-01T09:40:34;7.88;;;3.90;;
80225;SDS011;69538;42.000;21.452;2023-06-01T09:43:01;8.73;;;4.78;;
80225;SDS011;69538;42.000;21.452;2023-06-01T09:45:28;11.98;;;6.50;;
80225;SDS011;69538;42.000;21.452;2023-06-01T09:48:08;7.57;;;4.60;;
80225;SDS011;69538;42.000;21.452;2023-06-01T09:50:41;12.73;;;4.50;;
80225;SDS011;69538;42.000;21.452;2023-06-01T09:53:08;10.98;;;4.30;;
80225;SDS011;69538;42.000;21.452;2023-06-01T09:55:56;8.65;;;4.10;;
80225;SDS011;69538;42.000;21.452;2023-06-01T09:58:23;12.20;;;4.68;;
80225;SDS011;69538;42.000;21.452;2023-06-01T10:00:49;6.38;;;3.95;;
80225;SDS011;69538;42.000;21.452;2023-06-01T10:03:16;10.80;;;5.65;;
80225;SDS011;69538;42.000;21.452;2023-06-01T10:05:43;7.93;;;3.95;;
80225;SDS011;69538;42.000;21.452;2023-06-01T10:08:13;7.38;;;4.45;;
80225;SDS011;69538;42.000;21.452;2023-06-01T10:10:40;12.48;;;4.07;;
80225;SDS011;69538;42.000;21.452;2023-06-01T10:13:07;9.65;;;3.83;;
80225;SDS011;69538;42.000;21.452;2023-06-01T10:15:33;9.93;;;4.43;;
80225;SDS011;69538;42.000;21.452;2023-06-01T10:18:01;7.65;;;4.07;;
80225;SDS011;69538;42.000;21.452;2023-06-01T10:20:30;7.32;;;4.03;;
80225;SDS011;69538;42.000;21.452;2023-06-01T10:22:58;5.10;;;3.15;;
80225;SDS011;69538;42.000;21.452;2023-06-01T10:25:25;7.25;;;3.75;;
80225;SDS011;69538;42.000;21.452;2023-06-01T10:27:55;9.18;;;5.05;;
80225;SDS011;69538;42.000;21.452;2023-06-01T10:30:23;9.52;;;3.95;;
80225;SDS011;69538;42.000;21.452;2023-06-01T10:32:49;6.95;;;3.88;;
80225;SDS011;69538;42.000;21.452;2023-06-01T10:36:01;8.45;;;3.63;;
80225;SDS011;69538;42.000;21.452;2023-06-01T10:40:42;9.18;;;4.85;;
80225;SDS011;69538;42.000;21.452;2023-06-01T10:43:42;7.93;;;5.20;;
80225;SDS011;69538;42.000;21.452;2023-06-01T10:46:01;8.95;;;4.53;;
80225;SDS011;69538;42.000;21.452;2023-06-01T10:51:19;7.90;;;4.28;;
80225;SDS011;69538;42.000;21.452;2023-06-01T10:53:46;8.80;;;6.40;;
80225;SDS011;69538;42.000;21.452;2023-06-01T10:56:22;10.48;;;4.50;;
80225;SDS011;69538;42.000;21.452;2023-06-01T11:01:40;12.45;;;4.78;;
80225;SDS011;69538;42.000;21.452;2023-06-01T11:04:06;7.22;;;3.92;;
80225;SDS011;69538;42.000;21.452;2023-06-01T11:06:33;7.18;;;4.43;;
80225;SDS011;69538;42.000;21.452;2023-06-01T11:09:02;9.27;;;4.65;;
80225;SDS011;69538;42.000;21.452;2023-06-01T11:14:20;9.23;;;4.20;;
80225;SDS011;69538;42.000;21.452;2023-06-01T11:16:48;7.80;;;4.28;;
80225;SDS011;69538;42.000;21.452;2023-06-01T11:19:25;6.55;;;3.70;;
80225;SDS011;69538;42.000;21.452;2023-06-01T11:21:56;14.10;;;7.05;;
80225;SDS011;69538;42.000;21.452;2023-06-01T11:24:25;6.95;;;4.28;;
80225;SDS011;69538;42.000;21.452;2023-06-01T11:26:58;7.45;;;3.70;;
80225;SDS011;69538;42.000;21.452;2023-06-01T11:29:29;6.53;;;3.72;;
80225;SDS011;69538;42.000;21.452;2023-06-01T11:31:58;9.43;;;4.45;;
80225;SDS011;69538;42.000;21.452;2023-06-01T11:36:50;9.77;;;3.97;;
80225;SDS011;69538;42.000;21.452;2023-06-01T11:39:23;11.52;;;4.45;;
80225;SDS011;69538;42.000;21.452;2023-06-01T11:41:51;13.23;;;4.20;;
80225;SDS011;69538;42.000;21.452;2023-06-01T11:44:18;8.20;;;4.00;;
80225;SDS011;69538;42.000;21.452;2023-06-01T11:46:51;7.70;;;4.47;;
80225;SDS011;69538;42.000;21.452;2023-06-01T11:49:18;6.53;;;3.40;;
80225;SDS011;69538;42.000;21.452;2023-06-01T11:51:45;11.60;;;5.50;;
80225;SDS011;69538;42.000;21.452;2023-06-01T11:54:11;9.63;;;5.03;;
80225;SDS011;69538;42.000;21.452;2023-06-01T11:56:41;9.40;;;5.00;;
80225;SDS011;69538;42.000;21.452;2023-06-01T11:59:08;6.70;;;3.65;;
80225;SDS011;69538;42.000;21.452;2023-06-01T12:01:35;6.95;;;4.15;;
80225;SDS011;69538;42.000;21.452;2023-06-01T12:04:04;7.80;;;3.55;;
80225;SDS011;69538;42.000;21.452;2023-06-01T12:06:32;7.20;;;4.00;;
80225;SDS011;69538;42.000;21.452;2023-06-01T12:09:01;8.45;;;3.55;;
80225;SDS011;69538;42.000;21.452;2023-06-01T12:11:27;8.57;;;4.50;;
80225;SDS011;69538;42.000;21.452;2023-06-01T12:13:54;9.20;;;4.93;;
80225;SDS011;69538;42.000;21.452;2023-06-01T12:16:21;8.35;;;3.58;;
80225;SDS011;69538;42.000;21.452;2023-06-01T12:18:47;8.77;;;3.47;;
80225;SDS011;69538;42.000;21.452;2023-06-01T12:21:13;8.70;;;3.13;;
80225;SDS011;69538;42.000;21.452;2023-06-01T12:23:41;10.02;;;3.80;;
80225;SDS011;69538;42.000;21.452;2023-06-01T12:26:08;8.80;;;4.15;;
80225;SDS011;69538;42.000;21.452;2023-06-01T12:28:49;6.88;;;3.58;;
80225;SDS011;69538;42.000;21.452;2023-06-01T12:31:17;5.47;;;3.38;;
80225;SDS011;69538;42.000;21.452;2023-06-01T12:33:44;6.45;;;3.67;;
80225;SDS011;69538;42.000;21.452;2023-06-01T12:36:11;7.22;;;3.55;;
80225;SDS011;69538;42.000;21.452;2023-06-01T12:38:53;10.07;;;4.95;;
80225;SDS011;69538;42.000;21.452;2023-06-01T12:41:20;6.40;;;3.50;;
80225;SDS011;69538;42.000;21.452;2023-06-01T12:43:47;7.45;;;4.07;;
80225;SDS011;69538;42.000;21.452;2023-06-01T12:46:23;9.05;;;4.05;;
80225;SDS011;69538;42.000;21.452;2023-06-01T12:48:50;6.70;;;3.60;;
80225;SDS011;69538;42.000;21.452;2023-06-01T12:51:18;5.97;;;3.10;;
80225;SDS011;69538;42.000;21.452;2023-06-01T12:53:45;7.25;;;3.47;;
80225;SDS011;69538;42.000;21.452;2023-06-01T12:56:11;4.47;;;2.53;;
80225;SDS011;69538;42.000;21.452;2023-06-01T12:58:38;7.15;;;2.83;;
80225;SDS011;69538;42.000;21.452;2023-06-01T13:01:04;5.85;;;3.40;;
80225;SDS011;69538;42.000;21.452;2023-06-01T13:03:31;9.68;;;3.50;;
80225;SDS011;69538;42.000;21.452;2023-06-01T13:05:57;7.90;;;3.33;;
80225;SDS011;69538;42.000;21.452;2023-06-01T13:08:25;5.22;;;3.33;;
80225;SDS011;69538;42.000;21.452;2023-06-01T13:10:51;7.40;;;3.33;;
80225;SDS011;69538;42.000;21.452;2023-06-01T13:13:19;9.07;;;4.00;;
80225;SDS011;69538;42.000;21.452;2023-06-01T13:15:45;8.30;;;3.83;;
80225;SDS011;69538;42.000;21.452;2023-06-01T13:18:12;6.13;;;3.60;;
80225;SDS011;69538;42.000;21.452;2023-06-01T13:20:38;7.30;;;3.70;;
80225;SDS011;69538;42.000;21.452;2023-06-01T13:23:05;8.30;;;3.90;;
80225;SDS011;69538;42.000;21.452;2023-06-01T13:25:32;6.10;;;4.07;;
80225;SDS011;69538;42.000;21.452;2023-06-01T13:28:01;71.35;;;33.75;;
80225;SDS011;69538;42.000;21.452;2023-06-01T13:30:28;52.53;;;26.55;;
80225;SDS011;69538;42.000;21.452;2023-06-01T13:32:55;9.88;;;4.47;;
80225;SDS011;69538;42.000;21.452;2023-06-01T13:35:21;10.90;;;4.60;;
80225;SDS011;69538;42.000;21.452;2023-06-01T13:37:48;9.18;;;3.80;;
80225;SDS011;69538;42.000;21.452;2023-06-01T13:40:14;7.47;;;4.47;;
80225;SDS011;69538;42.000;21.452;2023-06-01T13:42:44;9.40;;;4.45;;
80225;SDS011;69538;42.000;21.452;2023-06-01T13:45:10;8.23;;;3.80;;
80225;SDS011;69538;42.000;21.452;2023-06-01T13:47:37;10.27;;;4.25;;
80225;SDS011;69538;42.000;21.452;2023-06-01T13:50:03;9.50;;;3.90;;
80225;SDS011;69538;42.000;21.452;2023-06-01T13:52:30;6.88;;;3.85;;
80225;SDS011;69538;42.000;21.452;2023-06-01T13:54:56;10.98;;;4.95;;
80225;SDS011;69538;42.000;21.452;2023-06-01T13:57:22;7.95;;;3.83;;
80225;SDS011;69538;42.000;21.452;2023-06-01T13:59:48;8.38;;;4.28;;
80225;SDS011;69538;42.000;21.452;2023-06-01T14:02:15;8.02;;;4.20;;
80225;SDS011;69538;42.000;21.452;2023-06-01T14:04:41;7.28;;;4.20;;
80225;SDS011;69538;42.000;21.452;2023-06-01T14:07:07;9.15;;;4.63;;
80225;SDS011;69538;42.000;21.452;2023-06-01T14:09:33;8.32;;;4.55;;
80225;SDS011;69538;42.000;21.452;2023-06-01T14:11:59;7.05;;;3.88;;
80225;SDS011;69538;42.000;21.452;2023-06-01T14:14:25;6.00;;;3.70;;
80225;SDS011;69538;42.000;21.452;2023-06-01T14:16:52;7.80;;;4.45;;
80225;SDS011;69538;42.000;21.452;2023-06-01T14:19:18;6.32;;;3.65;;
80225;SDS011;69538;42.000;21.452;2023-06-01T14:21:44;11.23;;;3.90;;
80225;SDS011;69538;42.000;21.452;2023-06-01T14:24:10;8.05;;;4.15;;
80225;SDS011;69538;42.000;21.452;2023-06-01T14:26:36;7.85;;;3.40;;
80225;SDS011;69538;42.000;21.452;2023-06-01T14:29:02;9.55;;;4.28;;
80225;SDS011;69538;42.000;21.452;2023-06-01T14:31:29;14.70;;;6.32;;
80225;SDS011;69538;42.000;21.452;2023-06-01T14:33:55;8.25;;;4.20;;
80225;SDS011;69538;42.000;21.452;2023-06-01T14:36:21;9.48;;;3.88;;
80225;SDS011;69538;42.000;21.452;2023-06-01T14:38:49;8.50;;;4.40;;
80225;SDS011;69538;42.000;21.452;2023-06-01T14:41:15;7.82;;;3.75;;
80225;SDS011;69538;42.000;21.452;2023-06-01T14:43:41;8.77;;;3.92;;
80225;SDS011;69538;42.000;21.452;2023-06-01T14:46:08;6.50;;;3.55;;
80225;SDS011;69538;42.000;21.452;2023-06-01T14:48:34;5.20;;;3.40;;
80225;SDS011;69538;42.000;21.452;2023-06-01T14:51:00;9.80;;;4.38;;
80225;SDS011;69538;42.000;21.452;2023-06-01T14:53:26;9.20;;;3.72;;